createdAt,value
2023-01-28T00:01:22.625Z,9.45
2023-01-28T00:03:54.615Z,14.80
2023-01-28T00:06:21.480Z,12.35
2023-01-28T00:08:48.674Z,11.30
2023-01-28T00:11:15.463Z,12.55
2023-01-28T00:13:42.375Z,7.10
2023-01-28T00:16:10.192Z,14.82
2023-01-28T00:18:37.613Z,10.63
2023-01-28T00:21:08.938Z,10.73
2023-01-28T00:23:38.025Z,13.25
2023-01-28T00:26:14.372Z,11.88
2023-01-28T00:28:42.617Z,13.00
2023-01-28T00:31:18.127Z,16.23
2023-01-28T00:33:47.524Z,14.27
2023-01-28T00:36:16.034Z,13.95
2023-01-28T00:38:43.624Z,11.85
2023-01-28T00:41:16.457Z,13.93
2023-01-28T00:43:45.074Z,13.48
2023-01-28T00:46:14.129Z,16.13
2023-01-28T00:48:43.018Z,11.20
2023-01-28T00:51:13.123Z,12.85
2023-01-28T00:53:41.096Z,9.80
2023-01-28T00:56:09.963Z,17.17
2023-01-28T00:58:36.755Z,7.93
2023-01-28T01:01:13.605Z,13.13
2023-01-28T01:03:40.739Z,8.35
2023-01-28T01:06:09.015Z,13.18
2023-01-28T01:08:36.056Z,9.50
2023-01-28T01:11:03.943Z,10.15
2023-01-28T01:13:32.796Z,16.73
2023-01-28T01:16:14.546Z,14.38
2023-01-28T01:18:42.131Z,12.60
2023-01-28T01:21:15.790Z,12.02
2023-01-28T01:23:42.517Z,11.23
2023-01-28T01:26:09.820Z,9.88
2023-01-28T01:28:37.442Z,7.90
2023-01-28T01:31:15.066Z,8.75
2023-01-28T01:33:43.707Z,12.98
2023-01-28T01:36:12.332Z,17.20
2023-01-28T01:38:40.421Z,20.58
2023-01-28T01:41:07.913Z,13.15
2023-01-28T01:44:05.732Z,10.25
2023-01-28T01:46:43.644Z,9.70
2023-01-28T01:49:23.157Z,9.88
2023-01-28T01:51:57.220Z,12.27
2023-01-28T01:54:27.077Z,10.65
2023-01-28T01:56:53.952Z,15.10
2023-01-28T01:59:26.418Z,11.45
2023-01-28T02:01:54.313Z,11.57
2023-01-28T02:04:28.079Z,11.23
2023-01-28T02:06:56.191Z,8.43
2023-01-28T02:09:25.301Z,10.00
2023-01-28T02:11:56.101Z,9.30
2023-01-28T02:14:31.456Z,10.77
2023-01-28T02:17:00.565Z,18.08
2023-01-28T02:19:38.255Z,10.88
2023-01-28T02:22:38.258Z,11.63
2023-01-28T02:25:12.244Z,9.57
2023-01-28T02:28:08.685Z,12.38
2023-01-28T02:30:52.109Z,17.65
2023-01-28T02:33:33.084Z,9.15
2023-01-28T02:36:12.722Z,11.80
2023-01-28T02:38:49.424Z,11.52
2023-01-28T02:41:35.145Z,11.30
2023-01-28T02:44:03.694Z,8.48
2023-01-28T02:46:48.995Z,13.32
2023-01-28T02:49:28.847Z,11.50
2023-01-28T02:52:48.799Z,13.93
2023-01-28T02:55:41.403Z,11.25
2023-01-28T02:58:13.677Z,9.30
2023-01-28T03:00:54.473Z,18.15
2023-01-28T03:04:24.865Z,7.68
2023-01-28T03:06:57.611Z,5.50
2023-01-28T03:12:26.499Z,7.70
2023-01-28T03:15:20.690Z,7.20
2023-01-28T03:18:13.437Z,10.43
2023-01-28T03:21:08.331Z,5.50
2023-01-28T03:24:24.143Z,10.45
2023-01-28T03:27:31.322Z,10.27
2023-01-28T03:30:26.405Z,9.90
2023-01-28T03:33:12.911Z,7.55
2023-01-28T03:35:58.775Z,10.88
2023-01-28T03:38:34.062Z,11.20
2023-01-28T03:41:03.261Z,6.55
2023-01-28T03:43:31.356Z,8.65
2023-01-28T03:45:58.496Z,13.63
2023-01-28T03:48:27.987Z,8.70
2023-01-28T03:50:59.183Z,10.32
2023-01-28T03:53:26.380Z,7.18
2023-01-28T03:55:54.365Z,8.27
2023-01-28T03:58:21.871Z,9.25
2023-01-28T04:00:48.827Z,9.35
2023-01-28T04:03:18.917Z,10.10
2023-01-28T04:05:57.659Z,6.32
2023-01-28T04:08:25.145Z,5.60
2023-01-28T04:10:53.191Z,5.57
2023-01-28T04:13:20.241Z,4.95
2023-01-28T04:15:47.839Z,7.30
2023-01-28T04:18:14.854Z,6.72
2023-01-28T04:20:41.793Z,8.38
2023-01-28T04:23:08.796Z,7.25
2023-01-28T04:25:35.600Z,3.70
2023-01-28T04:28:02.414Z,8.85
2023-01-28T04:30:29.392Z,6.28
2023-01-28T04:32:56.139Z,12.45
2023-01-28T04:35:22.908Z,7.05
2023-01-28T04:37:49.700Z,7.13
2023-01-28T04:40:16.866Z,9.18
2023-01-28T04:42:43.762Z,4.47
2023-01-28T04:45:10.939Z,5.32
2023-01-28T04:47:37.671Z,4.18
2023-01-28T04:50:04.895Z,5.93
2023-01-28T04:52:31.635Z,3.17
2023-01-28T04:54:58.708Z,6.30
2023-01-28T04:57:25.509Z,6.10
2023-01-28T04:59:52.255Z,6.50
2023-01-28T05:02:19.053Z,5.18
2023-01-28T05:04:45.875Z,4.97
2023-01-28T05:07:12.682Z,5.10
2023-01-28T05:09:39.412Z,4.65
2023-01-28T05:12:06.493Z,5.22
2023-01-28T05:14:33.253Z,6.50
2023-01-28T05:17:00.077Z,4.35
2023-01-28T05:19:26.866Z,3.95
2023-01-28T05:21:53.576Z,3.03
2023-01-28T05:24:21.754Z,3.58
2023-01-28T05:26:48.559Z,6.07
2023-01-28T05:29:15.304Z,6.38
2023-01-28T05:31:42.054Z,3.58
2023-01-28T05:34:08.898Z,3.53
2023-01-28T05:36:35.659Z,4.93
2023-01-28T05:39:02.403Z,3.50
2023-01-28T05:41:29.197Z,5.97
2023-01-28T05:43:55.989Z,5.35
2023-01-28T05:46:23.058Z,3.22
2023-01-28T05:48:51.072Z,4.82
2023-01-28T05:51:18.147Z,8.43
2023-01-28T05:53:44.973Z,4.50
2023-01-28T05:56:11.771Z,3.30
2023-01-28T05:58:38.537Z,2.88
2023-01-28T06:01:05.332Z,7.03
2023-01-28T06:03:32.125Z,4.20
2023-01-28T06:05:58.891Z,3.33
2023-01-28T06:08:25.657Z,2.58
2023-01-28T06:10:52.414Z,2.85
2023-01-28T06:13:19.123Z,3.60
2023-01-28T06:15:51.092Z,4.45
2023-01-28T06:18:17.961Z,4.70
2023-01-28T06:20:44.712Z,3.22
2023-01-28T06:23:11.429Z,6.43
2023-01-28T06:25:38.191Z,4.38
2023-01-28T06:28:05.024Z,4.03
2023-01-28T06:30:31.879Z,2.97
2023-01-28T06:32:59.146Z,4.93
2023-01-28T06:35:26.014Z,2.90
2023-01-28T06:37:53.706Z,3.60
2023-01-28T06:40:22.976Z,5.40
2023-01-28T06:42:49.911Z,3.00
2023-01-28T06:45:16.727Z,2.60
2023-01-28T06:47:43.460Z,3.15
2023-01-28T06:50:11.206Z,4.93
2023-01-28T06:52:37.911Z,3.50
2023-01-28T06:55:05.174Z,4.30
2023-01-28T06:57:31.923Z,3.10
2023-01-28T06:59:58.675Z,4.45
2023-01-28T07:02:27.599Z,3.63
2023-01-28T07:04:54.526Z,5.55
2023-01-28T07:07:21.345Z,5.97
2023-01-28T07:09:48.082Z,4.43
2023-01-28T07:12:14.859Z,3.13
2023-01-28T07:14:41.583Z,4.32
2023-01-28T07:17:08.367Z,4.18
2023-01-28T07:19:35.428Z,5.00
2023-01-28T07:22:03.307Z,3.72
2023-01-28T07:24:30.573Z,3.90
2023-01-28T07:26:57.388Z,5.75
2023-01-28T07:29:24.125Z,5.10
2023-01-28T07:31:50.904Z,3.88
2023-01-28T07:34:17.634Z,3.60
2023-01-28T07:36:44.357Z,2.95
2023-01-28T07:39:11.120Z,2.88
2023-01-28T07:41:37.836Z,4.47
2023-01-28T07:44:04.968Z,3.05
2023-01-28T07:46:31.872Z,5.30
2023-01-28T07:48:58.599Z,7.22
2023-01-28T07:51:26.029Z,3.88
2023-01-28T07:53:52.772Z,3.95
2023-01-28T07:56:19.491Z,4.55
2023-01-28T07:58:46.233Z,5.22
2023-01-28T08:01:14.345Z,5.50
2023-01-28T08:03:41.132Z,4.75
2023-01-28T08:06:07.900Z,3.85
2023-01-28T08:08:34.719Z,3.00
2023-01-28T08:11:10.915Z,2.60
2023-01-28T08:13:37.835Z,3.50
2023-01-28T08:16:05.181Z,5.80
2023-01-28T08:18:32.230Z,5.72
2023-01-28T08:21:00.116Z,4.03
2023-01-28T08:23:29.213Z,3.88
2023-01-28T08:25:59.321Z,5.97
2023-01-28T08:28:26.599Z,5.82
2023-01-28T08:30:53.639Z,5.10
2023-01-28T08:33:20.785Z,7.10
2023-01-28T08:35:47.717Z,6.13
2023-01-28T08:38:18.046Z,5.20
2023-01-28T08:40:44.850Z,6.93
2023-01-28T08:43:11.685Z,4.97
2023-01-28T08:45:40.386Z,4.93
2023-01-28T08:48:10.221Z,5.70
2023-01-28T08:50:39.664Z,8.07
2023-01-28T08:53:12.367Z,6.55
2023-01-28T08:58:18.334Z,4.35
2023-01-28T09:00:48.047Z,5.90
2023-01-28T09:03:15.265Z,5.80
2023-01-28T09:05:42.430Z,5.57
2023-01-28T09:08:15.404Z,6.60
2023-01-28T09:10:42.705Z,8.95
2023-01-28T09:13:15.876Z,5.53
2023-01-28T09:15:43.098Z,7.20
2023-01-28T09:18:10.244Z,10.60
2023-01-28T09:20:37.857Z,6.43
2023-01-28T09:23:04.926Z,6.85
2023-01-28T09:25:32.519Z,6.28
2023-01-28T09:27:59.369Z,4.25
2023-01-28T09:30:26.674Z,4.32
2023-01-28T09:32:55.297Z,4.43
2023-01-28T09:35:22.497Z,7.10
2023-01-28T09:37:49.395Z,7.40
2023-01-28T09:40:37.393Z,10.35
2023-01-28T09:43:29.317Z,5.65
2023-01-28T09:45:59.428Z,6.68
2023-01-28T09:48:33.896Z,5.90
2023-01-28T09:51:01.931Z,7.75
2023-01-28T09:53:35.774Z,4.35
2023-01-28T09:56:13.320Z,8.85
2023-01-28T09:58:42.401Z,3.20
2023-01-28T10:01:46.354Z,8.23
2023-01-28T10:04:23.412Z,10.45
2023-01-28T10:07:43.092Z,5.80
2023-01-28T10:10:34.649Z,4.80
2023-01-28T10:13:31.493Z,3.33
2023-01-28T10:16:15.573Z,6.25
2023-01-28T10:18:52.821Z,6.95
2023-01-28T10:21:29.458Z,13.55
2023-01-28T10:24:13.851Z,7.55
2023-01-28T10:26:43.114Z,5.70
2023-01-28T10:29:28.133Z,8.68
2023-01-28T10:32:03.072Z,6.13
2023-01-28T10:34:29.832Z,7.32
2023-01-28T10:36:58.186Z,6.40
2023-01-28T10:39:26.384Z,3.90
2023-01-28T10:41:58.204Z,5.93
2023-01-28T10:44:39.170Z,6.05
2023-01-28T10:47:15.829Z,8.02
2023-01-28T10:49:49.357Z,3.28
2023-01-28T10:52:16.895Z,8.65
2023-01-28T10:54:43.639Z,7.65
2023-01-28T10:57:16.927Z,9.25
2023-01-28T10:59:44.502Z,5.43
2023-01-28T11:02:32.845Z,4.85
2023-01-28T11:05:15.221Z,5.63
2023-01-28T11:07:42.114Z,8.57
2023-01-28T11:10:32.431Z,8.93
2023-01-28T11:13:06.285Z,7.25
2023-01-28T11:15:33.624Z,9.60
2023-01-28T11:18:08.832Z,8.70
2023-01-28T11:20:43.783Z,8.65
2023-01-28T11:23:25.319Z,7.70
2023-01-28T11:26:09.506Z,8.95
2023-01-28T11:28:41.883Z,6.47
2023-01-28T11:31:13.353Z,9.20
2023-01-28T11:33:50.218Z,9.13
2023-01-28T11:36:32.178Z,7.63
2023-01-28T11:39:22.318Z,8.27
2023-01-28T11:41:49.449Z,8.43
2023-01-28T11:44:22.156Z,7.63
2023-01-28T11:47:33.915Z,11.70
2023-01-28T11:50:41.651Z,8.10
2023-01-28T11:53:40.619Z,6.38
2023-01-28T11:56:39.958Z,5.45
2023-01-28T11:59:42.879Z,8.63
2023-01-28T12:02:26.761Z,9.85
2023-01-28T12:05:12.943Z,7.57
2023-01-28T12:07:55.737Z,7.18
2023-01-28T12:10:41.604Z,5.90
2023-01-28T12:13:42.960Z,9.55
2023-01-28T12:16:17.807Z,5.65
2023-01-28T12:19:30.106Z,10.50
2023-01-28T12:22:05.705Z,6.95
2023-01-28T12:25:13.180Z,11.48
2023-01-28T12:28:10.193Z,5.72
2023-01-28T12:31:28.090Z,6.95
2023-01-28T12:34:13.449Z,5.10
2023-01-28T12:37:20.858Z,5.93
2023-01-28T12:40:09.073Z,3.97
2023-01-28T12:42:38.009Z,5.50
2023-01-28T12:45:21.043Z,4.28
2023-01-28T12:50:28.949Z,5.93
2023-01-28T12:53:14.521Z,10.73
2023-01-28T12:55:49.025Z,8.95
2023-01-28T12:58:26.082Z,4.90
2023-01-28T13:01:01.659Z,10.13
2023-01-28T13:03:42.614Z,6.47
2023-01-28T13:06:18.135Z,12.93
2023-01-28T13:08:44.914Z,7.20
2023-01-28T13:11:17.556Z,8.80
2023-01-28T13:13:46.816Z,6.25
2023-01-28T13:16:14.187Z,6.43
2023-01-28T13:18:41.074Z,6.30
2023-01-28T13:21:26.411Z,7.68
2023-01-28T13:24:02.855Z,9.85
2023-01-28T13:26:38.482Z,7.75
2023-01-28T13:29:33.440Z,4.68
2023-01-28T13:32:03.977Z,9.10
2023-01-28T13:34:38.058Z,8.13
2023-01-28T13:37:47.372Z,7.53
2023-01-28T13:40:14.075Z,5.32
2023-01-28T13:42:41.897Z,6.05
2023-01-28T13:45:22.434Z,4.38
2023-01-28T13:48:00.136Z,6.40
2023-01-28T13:50:39.832Z,3.88
2023-01-28T13:53:27.787Z,3.28
2023-01-28T13:55:58.715Z,6.50
2023-01-28T13:58:34.239Z,5.55
2023-01-28T14:01:17.974Z,4.07
2023-01-28T14:04:22.211Z,4.57
2023-01-28T14:07:20.350Z,3.97
2023-01-28T14:13:31.997Z,7.35
2023-01-28T14:16:41.660Z,7.45
2023-01-28T14:19:14.519Z,6.97
2023-01-28T14:24:18.122Z,4.50
2023-01-28T14:27:04.530Z,7.78
2023-01-28T14:29:52.441Z,6.00
2023-01-28T14:32:29.788Z,4.22
2023-01-28T14:35:00.786Z,6.25
2023-01-28T14:37:31.946Z,4.78
2023-01-28T14:39:59.718Z,6.20
2023-01-28T14:42:45.837Z,9.50
2023-01-28T14:45:33.528Z,5.22
2023-01-28T14:48:30.972Z,4.13
2023-01-28T14:51:09.776Z,7.07
2023-01-28T14:54:19.587Z,8.18
2023-01-28T14:57:49.970Z,8.45
2023-01-28T15:00:28.784Z,8.18
2023-01-28T15:02:55.996Z,8.38
2023-01-28T15:05:27.855Z,7.05
2023-01-28T15:07:55.917Z,5.68
2023-01-28T15:10:25.337Z,6.25
2023-01-28T15:13:07.075Z,5.15
2023-01-28T15:15:37.477Z,12.20
2023-01-28T15:18:16.758Z,7.90
2023-01-28T15:20:53.494Z,13.13
2023-01-28T15:23:33.886Z,7.07
2023-01-28T15:26:10.979Z,8.27
2023-01-28T15:28:40.075Z,8.60
2023-01-28T15:31:07.544Z,10.20
2023-01-28T15:33:34.341Z,8.75
2023-01-28T15:36:01.288Z,12.70
2023-01-28T15:38:29.404Z,10.68
2023-01-28T15:41:02.862Z,10.25
2023-01-28T15:43:37.323Z,5.30
2023-01-28T15:46:10.479Z,8.40
2023-01-28T15:48:42.039Z,6.38
2023-01-28T15:51:21.175Z,10.60
2023-01-28T15:53:52.701Z,12.40
2023-01-28T15:56:27.979Z,7.32
2023-01-28T15:58:56.326Z,10.45
2023-01-28T16:01:24.222Z,15.50
2023-01-28T16:04:06.859Z,8.30
2023-01-28T16:06:41.842Z,9.70
2023-01-28T16:09:24.984Z,10.45
2023-01-28T16:11:52.565Z,7.45
2023-01-28T16:14:30.454Z,7.70
2023-01-28T16:16:57.988Z,12.52
2023-01-28T16:19:46.113Z,12.30
2023-01-28T16:22:33.934Z,8.15
2023-01-28T16:25:01.015Z,10.20
2023-01-28T16:27:29.785Z,9.35
2023-01-28T16:29:56.533Z,9.43
2023-01-28T16:32:33.436Z,9.23
2023-01-28T16:35:01.054Z,11.63
2023-01-28T16:37:27.972Z,8.65
2023-01-28T16:39:54.766Z,10.70
2023-01-28T16:42:21.657Z,9.95
2023-01-28T16:44:48.493Z,10.50
2023-01-28T16:47:15.352Z,12.38
2023-01-28T16:49:42.193Z,8.90
2023-01-28T16:52:11.575Z,10.73
2023-01-28T16:54:41.091Z,7.57
2023-01-28T16:57:16.750Z,10.20
2023-01-28T16:59:43.566Z,12.25
2023-01-28T17:02:15.973Z,12.02
2023-01-28T17:04:42.772Z,6.97
2023-01-28T17:07:10.077Z,11.02
2023-01-28T17:09:36.899Z,11.55
2023-01-28T17:12:04.801Z,8.68
2023-01-28T17:14:31.609Z,12.57
2023-01-28T17:16:58.364Z,8.07
2023-01-28T17:19:25.232Z,8.77
2023-01-28T17:21:52.001Z,11.57
2023-01-28T17:24:18.804Z,11.93
2023-01-28T17:26:45.618Z,15.10
2023-01-28T17:29:12.440Z,11.73
2023-01-28T17:31:39.275Z,11.60
2023-01-28T17:34:08.231Z,9.18
2023-01-28T17:36:35.286Z,11.93
2023-01-28T17:39:02.202Z,11.13
2023-01-28T17:41:29.284Z,7.38
2023-01-28T17:43:57.002Z,8.15
2023-01-28T17:46:25.836Z,10.20
2023-01-28T17:48:53.222Z,11.77
2023-01-28T17:51:20.281Z,12.75
2023-01-28T17:53:49.033Z,7.60
2023-01-28T17:56:18.718Z,10.38
2023-01-28T17:59:06.623Z,16.83
2023-01-28T18:01:37.293Z,9.00
2023-01-28T18:04:04.796Z,10.43
2023-01-28T18:06:34.214Z,11.10
2023-01-28T18:09:01.232Z,8.77
2023-01-28T18:11:28.864Z,8.13
2023-01-28T18:13:55.917Z,10.68
2023-01-28T18:16:23.057Z,9.25
2023-01-28T18:18:50.792Z,7.57
2023-01-28T18:21:46.573Z,11.18
2023-01-28T18:24:17.621Z,8.45
2023-01-28T18:26:44.633Z,11.70
2023-01-28T18:29:16.892Z,12.77
2023-01-28T18:31:44.145Z,9.95
2023-01-28T18:34:11.179Z,9.98
2023-01-28T18:36:38.084Z,13.02
2023-01-28T18:39:05.005Z,11.40
2023-01-28T18:41:31.876Z,12.90
2023-01-28T18:43:58.724Z,8.52
2023-01-28T18:46:25.583Z,11.63
2023-01-28T18:48:52.464Z,19.38
2023-01-28T18:51:30.156Z,13.18
2023-01-28T18:54:02.554Z,11.73
2023-01-28T18:56:54.187Z,10.85
2023-01-28T18:59:21.505Z,15.98
2023-01-28T19:01:48.758Z,9.65
2023-01-28T19:04:16.415Z,11.02
2023-01-28T19:06:43.571Z,12.85
2023-01-28T19:09:12.785Z,10.98
2023-01-28T19:11:41.043Z,13.38
2023-01-28T19:14:10.504Z,11.30
2023-01-28T19:16:37.810Z,16.98
2023-01-28T19:19:05.646Z,11.68
2023-01-28T19:21:34.225Z,12.35
2023-01-28T19:24:06.737Z,9.88
2023-01-28T19:26:34.139Z,11.57
2023-01-28T19:29:01.717Z,8.45
2023-01-28T19:31:29.440Z,11.32
2023-01-28T19:33:59.446Z,13.13
2023-01-28T19:36:29.479Z,13.38
2023-01-28T19:39:07.621Z,8.00
2023-01-28T19:41:35.909Z,9.70
2023-01-28T19:44:03.440Z,12.52
2023-01-28T19:46:30.876Z,10.45
2023-01-28T19:48:57.759Z,14.15
2023-01-28T19:51:25.167Z,11.50
2023-01-28T19:53:54.352Z,8.70
2023-01-28T19:56:24.386Z,8.73
2023-01-28T19:58:54.825Z,8.50
2023-01-28T20:01:27.943Z,12.65
2023-01-28T20:03:59.442Z,11.13
2023-01-28T20:06:31.650Z,10.98
2023-01-28T20:09:06.222Z,10.57
2023-01-28T20:11:33.161Z,11.57
2023-01-28T20:14:00.074Z,15.65
2023-01-28T20:16:31.247Z,11.38
2023-01-28T20:19:04.338Z,14.02
2023-01-28T20:21:33.171Z,11.77
2023-01-28T20:24:02.341Z,13.55
2023-01-28T20:26:33.250Z,11.10
2023-01-28T20:29:09.666Z,11.70
2023-01-28T20:31:38.775Z,9.75
2023-01-28T20:34:06.154Z,9.50
2023-01-28T20:36:33.281Z,12.07
2023-01-28T20:39:00.537Z,14.27
2023-01-28T20:41:27.792Z,10.85
2023-01-28T20:43:55.387Z,9.70
2023-01-28T20:46:27.747Z,12.30
2023-01-28T20:48:57.636Z,8.60
2023-01-28T20:51:28.387Z,7.93
2023-01-28T20:53:56.283Z,8.95
2023-01-28T20:56:27.653Z,10.27
2023-01-28T20:58:57.823Z,9.82
2023-01-28T21:01:29.450Z,9.93
2023-01-28T21:03:57.041Z,9.88
2023-01-28T21:06:25.265Z,9.77
2023-01-28T21:08:53.354Z,11.60
2023-01-28T21:11:21.044Z,10.18
2023-01-28T21:13:48.110Z,8.27
2023-01-28T21:16:15.206Z,7.90
2023-01-28T21:18:42.352Z,10.90
2023-01-28T21:21:20.911Z,12.32
2023-01-28T21:23:48.635Z,10.02
2023-01-28T21:26:16.669Z,8.35
2023-01-28T21:28:45.914Z,11.00
2023-01-28T21:31:22.194Z,7.55
2023-01-28T21:33:50.802Z,8.63
2023-01-28T21:36:18.718Z,9.82
2023-01-28T21:38:51.087Z,8.85
2023-01-28T21:41:18.074Z,7.95
2023-01-28T21:43:44.944Z,8.20
2023-01-28T21:46:11.827Z,7.80
2023-01-28T21:48:38.727Z,6.47
2023-01-28T21:51:47.363Z,8.20
2023-01-28T21:54:19.519Z,9.00
2023-01-28T21:56:49.431Z,9.20
2023-01-28T21:59:30.755Z,8.27
2023-01-28T22:02:01.235Z,8.57
2023-01-28T22:04:35.201Z,9.63
2023-01-28T22:07:03.701Z,6.75
2023-01-28T22:09:31.349Z,8.80
2023-01-28T22:11:58.261Z,6.75
2023-01-28T22:14:25.583Z,7.88
2023-01-28T22:16:53.329Z,6.95
2023-01-28T22:19:20.906Z,5.90
2023-01-28T22:21:48.745Z,5.75
2023-01-28T22:24:22.671Z,7.13
2023-01-28T22:26:49.984Z,5.20
2023-01-28T22:29:19.125Z,5.07
2023-01-28T22:31:50.894Z,3.90
2023-01-28T22:34:19.545Z,8.15
2023-01-28T22:36:47.474Z,5.00
2023-01-28T22:39:16.450Z,4.05
2023-01-28T22:41:44.796Z,5.72
2023-01-28T22:44:11.954Z,6.35
2023-01-28T22:46:38.888Z,4.68
2023-01-28T22:49:05.933Z,4.65
2023-01-28T22:51:35.990Z,3.63
2023-01-28T22:54:03.860Z,3.97
2023-01-28T22:56:31.763Z,5.05
2023-01-28T22:59:03.776Z,4.38
2023-01-28T23:01:31.201Z,2.75
2023-01-28T23:03:58.374Z,2.35
2023-01-28T23:06:27.685Z,3.08
2023-01-28T23:08:56.547Z,3.22
2023-01-28T23:11:28.352Z,3.25
2023-01-28T23:14:19.861Z,4.30
2023-01-28T23:17:06.476Z,3.60
2023-01-28T23:19:52.276Z,2.90
2023-01-28T23:22:47.424Z,3.53
2023-01-28T23:25:15.103Z,6.55
2023-01-28T23:27:43.210Z,7.28
2023-01-28T23:30:11.920Z,4.07
2023-01-28T23:32:41.981Z,4.93
2023-01-28T23:35:10.575Z,4.70
2023-01-28T23:37:37.844Z,4.70
2023-01-28T23:40:06.348Z,3.65
2023-01-28T23:42:33.252Z,4.22
2023-01-28T23:45:00.262Z,2.20
2023-01-28T23:47:27.144Z,2.70
2023-01-28T23:49:54.399Z,2.80
2023-01-28T23:52:21.373Z,4.07
2023-01-28T23:54:48.236Z,2.42
2023-01-28T23:57:15.169Z,2.85
2023-01-28T23:59:42.582Z,2.70
